Airports

 

 

Airport Name Latest METAR Visual Conditions
Atlanta International (ATL) KATL 020752Z 34004KT 10SM FEW250 06/02 A3003 RMK AO2 SLP170 T00610017 VFR
Asheville Regional (AVL) KAVL 020754Z AUTO 34006KT 10SM OVC040 06/00 A3002 RMK AO2 SLP163 T00610000 VFR
Birmingham International (BHM) KBHM 020753Z 00000KT 10SM CLR 08/03 A3010 RMK AO2 SLP191 T00780028 VFR
Chattanooga (CHA) KCHA 020753Z AUTO A3009 RMK AO2 SLPNO PWINO FZRANO $
Charlotte International (CLT) KCLT 020752Z 33005KT 10SM SCT250 06/01 A3001 RMK AO2 SLP160 T00560006 VFR
Greensboro Piedmont-Triad (GSO) KGSO 020754Z 00000KT 10SM CLR 03/01 A2997 RMK AO2 SLP151 T00330011 VFR
Greenville-Spartanburg International (GSP) KGSP 020753Z AUTO 31004KT 10SM CLR 06/01 A3003 RMK AO2 SLP167 T00610011 VFR
Middle Georgia Regional Airport (MCN) KMCN 020753Z AUTO 27004KT 10SM CLR 07/05 A3003 RMK AO2 SLP167 T00670050 VFR
Tri-Cities Airport (TRI) KTRI 020753Z 28004KT 10SM SCT041 OVC049 06/03 A3006 RMK AO2 SLP172 T00610033 VFR
Knoxville Regional (TYS) KTYS 020753Z 00000KT 10SM FEW250 04/02 A3007 RMK AO2 SLP184 T00390022 VFR